sensor_id;sensor_type;location;lat;lon;timestamp;P1;durP1;ratioP1;P2;durP2;ratioP2
59659;SDS011;45534;52.690;6.268;2022-10-31T00:01:34;13.93;;;9.02;;
59659;SDS011;45534;52.690;6.268;2022-10-31T00:04:01;13.13;;;8.23;;
59659;SDS011;45534;52.690;6.268;2022-10-31T00:06:28;14.75;;;9.02;;
59659;SDS011;45534;52.690;6.268;2022-10-31T00:08:55;21.60;;;10.13;;
59659;SDS011;45534;52.690;6.268;2022-10-31T00:11:23;11.68;;;8.27;;
59659;SDS011;45534;52.690;6.268;2022-10-31T00:13:49;13.93;;;8.32;;
59659;SDS011;45534;52.690;6.268;2022-10-31T00:16:15;14.57;;;7.45;;
59659;SDS011;45534;52.690;6.268;2022-10-31T00:18:43;17.70;;;11.25;;
59659;SDS011;45534;52.690;6.268;2022-10-31T00:21:09;14.95;;;8.95;;
59659;SDS011;45534;52.690;6.268;2022-10-31T00:23:35;22.23;;;12.30;;
59659;SDS011;45534;52.690;6.268;2022-10-31T00:26:01;16.08;;;10.50;;
59659;SDS011;45534;52.690;6.268;2022-10-31T00:28:27;15.63;;;8.45;;
59659;SDS011;45534;52.690;6.268;2022-10-31T00:30:57;19.05;;;8.13;;
59659;SDS011;45534;52.690;6.268;2022-10-31T00:33:24;13.65;;;9.32;;
59659;SDS011;45534;52.690;6.268;2022-10-31T00:35:50;18.05;;;9.85;;
59659;SDS011;45534;52.690;6.268;2022-10-31T00:38:16;13.90;;;10.30;;
59659;SDS011;45534;52.690;6.268;2022-10-31T00:40:41;16.60;;;9.20;;
59659;SDS011;45534;52.690;6.268;2022-10-31T00:43:07;13.82;;;7.97;;
59659;SDS011;45534;52.690;6.268;2022-10-31T00:45:33;15.63;;;8.45;;
59659;SDS011;45534;52.690;6.268;2022-10-31T00:47:58;16.25;;;8.30;;
59659;SDS011;45534;52.690;6.268;2022-10-31T00:50:24;13.20;;;8.13;;
59659;SDS011;45534;52.690;6.268;2022-10-31T00:52:50;10.85;;;7.55;;
59659;SDS011;45534;52.690;6.268;2022-10-31T00:55:15;10.85;;;5.63;;
59659;SDS011;45534;52.690;6.268;2022-10-31T00:57:41;13.32;;;6.95;;
59659;SDS011;45534;52.690;6.268;2022-10-31T01:00:07;10.18;;;7.38;;
59659;SDS011;45534;52.690;6.268;2022-10-31T01:02:33;10.13;;;7.10;;
59659;SDS011;45534;52.690;6.268;2022-10-31T01:04:58;9.00;;;6.20;;
59659;SDS011;45534;52.690;6.268;2022-10-31T01:07:24;19.08;;;7.47;;
59659;SDS011;45534;52.690;6.268;2022-10-31T01:09:50;9.40;;;5.15;;
59659;SDS011;45534;52.690;6.268;2022-10-31T01:12:15;14.65;;;7.55;;
59659;SDS011;45534;52.690;6.268;2022-10-31T01:14:44;9.73;;;5.72;;
59659;SDS011;45534;52.690;6.268;2022-10-31T01:17:11;7.15;;;4.25;;
59659;SDS011;45534;52.690;6.268;2022-10-31T01:19:37;12.25;;;6.05;;
59659;SDS011;45534;52.690;6.268;2022-10-31T01:22:03;11.50;;;6.03;;
59659;SDS011;45534;52.690;6.268;2022-10-31T01:24:29;10.45;;;6.07;;
59659;SDS011;45534;52.690;6.268;2022-10-31T01:26:55;11.23;;;6.40;;
59659;SDS011;45534;52.690;6.268;2022-10-31T01:29:20;12.65;;;5.88;;
59659;SDS011;45534;52.690;6.268;2022-10-31T01:31:46;12.32;;;8.50;;
59659;SDS011;45534;52.690;6.268;2022-10-31T01:34:12;30.23;;;8.27;;
59659;SDS011;45534;52.690;6.268;2022-10-31T01:36:39;16.15;;;8.35;;
59659;SDS011;45534;52.690;6.268;2022-10-31T01:39:06;9.52;;;5.18;;
59659;SDS011;45534;52.690;6.268;2022-10-31T01:41:37;9.40;;;6.00;;
59659;SDS011;45534;52.690;6.268;2022-10-31T01:49:24;15.90;;;6.78;;
59659;SDS011;45534;52.690;6.268;2022-10-31T01:52:07;13.77;;;6.18;;
59659;SDS011;45534;52.690;6.268;2022-10-31T01:54:39;7.57;;;5.70;;
59659;SDS011;45534;52.690;6.268;2022-10-31T01:57:08;7.57;;;5.72;;
59659;SDS011;45534;52.690;6.268;2022-10-31T01:59:38;9.95;;;6.18;;
59659;SDS011;45534;52.690;6.268;2022-10-31T02:02:09;9.73;;;5.70;;
59659;SDS011;45534;52.690;6.268;2022-10-31T02:04:35;11.88;;;6.07;;
59659;SDS011;45534;52.690;6.268;2022-10-31T02:07:10;9.93;;;6.43;;
59659;SDS011;45534;52.690;6.268;2022-10-31T02:09:39;11.07;;;5.97;;
59659;SDS011;45534;52.690;6.268;2022-10-31T02:12:07;9.80;;;6.20;;
59659;SDS011;45534;52.690;6.268;2022-10-31T02:14:35;11.70;;;6.10;;
59659;SDS011;45534;52.690;6.268;2022-10-31T02:17:02;14.32;;;6.10;;
59659;SDS011;45534;52.690;6.268;2022-10-31T02:19:51;9.57;;;5.90;;
59659;SDS011;45534;52.690;6.268;2022-10-31T02:22:34;9.73;;;5.30;;
59659;SDS011;45534;52.690;6.268;2022-10-31T02:25:25;15.18;;;9.02;;
59659;SDS011;45534;52.690;6.268;2022-10-31T02:33:51;13.85;;;6.82;;
59659;SDS011;45534;52.690;6.268;2022-10-31T02:39:18;8.73;;;5.72;;
59659;SDS011;45534;52.690;6.268;2022-10-31T02:47:14;10.30;;;6.57;;
59659;SDS011;45534;52.690;6.268;2022-10-31T02:49:50;10.18;;;5.68;;
59659;SDS011;45534;52.690;6.268;2022-10-31T02:52:29;11.75;;;5.95;;
59659;SDS011;45534;52.690;6.268;2022-10-31T02:54:56;9.70;;;6.32;;
59659;SDS011;45534;52.690;6.268;2022-10-31T02:57:23;12.82;;;7.45;;
59659;SDS011;45534;52.690;6.268;2022-10-31T02:59:55;8.18;;;6.28;;
59659;SDS011;45534;52.690;6.268;2022-10-31T03:05:30;11.75;;;7.25;;
59659;SDS011;45534;52.690;6.268;2022-10-31T03:08:05;12.00;;;8.57;;
59659;SDS011;45534;52.690;6.268;2022-10-31T03:10:44;14.05;;;8.32;;
59659;SDS011;45534;52.690;6.268;2022-10-31T03:15:51;16.95;;;7.57;;
59659;SDS011;45534;52.690;6.268;2022-10-31T03:20:59;11.30;;;5.97;;
59659;SDS011;45534;52.690;6.268;2022-10-31T03:23:38;9.40;;;4.90;;
59659;SDS011;45534;52.690;6.268;2022-10-31T03:26:05;16.15;;;7.05;;
59659;SDS011;45534;52.690;6.268;2022-10-31T03:28:38;9.63;;;7.68;;
59659;SDS011;45534;52.690;6.268;2022-10-31T03:31:35;10.02;;;7.45;;
59659;SDS011;45534;52.690;6.268;2022-10-31T03:34:08;18.05;;;10.25;;
59659;SDS011;45534;52.690;6.268;2022-10-31T03:36:37;19.95;;;11.35;;
59659;SDS011;45534;52.690;6.268;2022-10-31T03:39:05;11.85;;;7.43;;
59659;SDS011;45534;52.690;6.268;2022-10-31T03:41:38;10.45;;;7.70;;
59659;SDS011;45534;52.690;6.268;2022-10-31T03:44:09;10.52;;;7.75;;
59659;SDS011;45534;52.690;6.268;2022-10-31T03:46:39;12.10;;;8.00;;
59659;SDS011;45534;52.690;6.268;2022-10-31T03:49:05;10.68;;;7.38;;
59659;SDS011;45534;52.690;6.268;2022-10-31T03:51:42;11.43;;;6.65;;
59659;SDS011;45534;52.690;6.268;2022-10-31T03:56:55;13.23;;;6.78;;
59659;SDS011;45534;52.690;6.268;2022-10-31T04:02:30;12.30;;;7.53;;
59659;SDS011;45534;52.690;6.268;2022-10-31T04:04:58;16.38;;;6.95;;
59659;SDS011;45534;52.690;6.268;2022-10-31T04:07:28;11.10;;;6.80;;
59659;SDS011;45534;52.690;6.268;2022-10-31T04:10:00;10.48;;;5.53;;
59659;SDS011;45534;52.690;6.268;2022-10-31T04:12:28;9.80;;;5.95;;
59659;SDS011;45534;52.690;6.268;2022-10-31T04:14:56;8.35;;;6.05;;
59659;SDS011;45534;52.690;6.268;2022-10-31T04:17:22;9.57;;;5.32;;
59659;SDS011;45534;52.690;6.268;2022-10-31T04:19:52;8.98;;;5.32;;
59659;SDS011;45534;52.690;6.268;2022-10-31T04:22:18;9.73;;;5.70;;
59659;SDS011;45534;52.690;6.268;2022-10-31T04:24:43;11.18;;;5.55;;
59659;SDS011;45534;52.690;6.268;2022-10-31T04:27:09;13.45;;;6.82;;
59659;SDS011;45534;52.690;6.268;2022-10-31T04:29:35;8.60;;;6.22;;
59659;SDS011;45534;52.690;6.268;2022-10-31T04:32:01;12.77;;;5.57;;
59659;SDS011;45534;52.690;6.268;2022-10-31T04:34:27;13.15;;;6.75;;
59659;SDS011;45534;52.690;6.268;2022-10-31T04:36:52;8.60;;;5.88;;
59659;SDS011;45534;52.690;6.268;2022-10-31T04:39:18;5.53;;;3.67;;
59659;SDS011;45534;52.690;6.268;2022-10-31T04:41:43;4.40;;;3.00;;
59659;SDS011;45534;52.690;6.268;2022-10-31T04:44:09;4.72;;;2.33;;
59659;SDS011;45534;52.690;6.268;2022-10-31T04:46:35;5.68;;;3.05;;
59659;SDS011;45534;52.690;6.268;2022-10-31T04:49:00;3.92;;;2.72;;
59659;SDS011;45534;52.690;6.268;2022-10-31T04:51:26;6.35;;;3.65;;
59659;SDS011;45534;52.690;6.268;2022-10-31T04:53:52;6.25;;;3.58;;
59659;SDS011;45534;52.690;6.268;2022-10-31T04:56:17;5.38;;;3.60;;
59659;SDS011;45534;52.690;6.268;2022-10-31T04:58:43;4.78;;;3.40;;
59659;SDS011;45534;52.690;6.268;2022-10-31T05:01:09;4.63;;;3.00;;
59659;SDS011;45534;52.690;6.268;2022-10-31T05:03:34;8.13;;;4.72;;
59659;SDS011;45534;52.690;6.268;2022-10-31T05:06:00;11.75;;;6.93;;
59659;SDS011;45534;52.690;6.268;2022-10-31T05:08:26;14.20;;;4.93;;
59659;SDS011;45534;52.690;6.268;2022-10-31T05:10:51;7.20;;;4.07;;
59659;SDS011;45534;52.690;6.268;2022-10-31T05:13:17;5.97;;;3.88;;
59659;SDS011;45534;52.690;6.268;2022-10-31T05:15:43;12.25;;;5.60;;
59659;SDS011;45534;52.690;6.268;2022-10-31T05:18:08;15.65;;;4.32;;
59659;SDS011;45534;52.690;6.268;2022-10-31T05:20:34;8.13;;;4.53;;
59659;SDS011;45534;52.690;6.268;2022-10-31T05:23:00;11.75;;;4.57;;
59659;SDS011;45534;52.690;6.268;2022-10-31T05:25:26;6.55;;;4.22;;
59659;SDS011;45534;52.690;6.268;2022-10-31T05:27:54;10.40;;;4.82;;
59659;SDS011;45534;52.690;6.268;2022-10-31T05:30:21;5.25;;;4.18;;
59659;SDS011;45534;52.690;6.268;2022-10-31T05:32:54;14.10;;;6.05;;
59659;SDS011;45534;52.690;6.268;2022-10-31T05:35:23;13.50;;;5.55;;
59659;SDS011;45534;52.690;6.268;2022-10-31T05:37:53;6.32;;;4.65;;
59659;SDS011;45534;52.690;6.268;2022-10-31T05:40:19;8.93;;;5.50;;
59659;SDS011;45534;52.690;6.268;2022-10-31T05:42:46;10.27;;;5.63;;
59659;SDS011;45534;52.690;6.268;2022-10-31T05:45:13;11.20;;;5.68;;
59659;SDS011;45534;52.690;6.268;2022-10-31T05:47:40;8.25;;;6.03;;
59659;SDS011;45534;52.690;6.268;2022-10-31T05:50:07;14.43;;;4.97;;
59659;SDS011;45534;52.690;6.268;2022-10-31T05:52:34;12.15;;;6.95;;
59659;SDS011;45534;52.690;6.268;2022-10-31T05:55:00;9.32;;;5.63;;
59659;SDS011;45534;52.690;6.268;2022-10-31T05:57:26;7.82;;;5.50;;
59659;SDS011;45534;52.690;6.268;2022-10-31T05:59:52;7.00;;;3.72;;
59659;SDS011;45534;52.690;6.268;2022-10-31T06:02:18;7.43;;;4.70;;
59659;SDS011;45534;52.690;6.268;2022-10-31T06:04:44;6.47;;;4.55;;
59659;SDS011;45534;52.690;6.268;2022-10-31T06:07:10;5.57;;;3.97;;
59659;SDS011;45534;52.690;6.268;2022-10-31T06:09:36;4.25;;;3.53;;
59659;SDS011;45534;52.690;6.268;2022-10-31T06:12:01;2.85;;;2.55;;
59659;SDS011;45534;52.690;6.268;2022-10-31T06:14:27;5.60;;;3.55;;
59659;SDS011;45534;52.690;6.268;2022-10-31T06:16:54;4.10;;;3.03;;
59659;SDS011;45534;52.690;6.268;2022-10-31T06:19:20;3.03;;;2.70;;
59659;SDS011;45534;52.690;6.268;2022-10-31T06:21:46;4.13;;;2.97;;
59659;SDS011;45534;52.690;6.268;2022-10-31T06:24:11;5.28;;;3.28;;
59659;SDS011;45534;52.690;6.268;2022-10-31T06:26:37;3.60;;;2.85;;
59659;SDS011;45534;52.690;6.268;2022-10-31T06:29:03;5.78;;;3.28;;
59659;SDS011;45534;52.690;6.268;2022-10-31T06:31:28;3.80;;;3.33;;
59659;SDS011;45534;52.690;6.268;2022-10-31T06:33:54;6.53;;;2.90;;
59659;SDS011;45534;52.690;6.268;2022-10-31T06:36:19;8.15;;;3.95;;
59659;SDS011;45534;52.690;6.268;2022-10-31T06:38:45;5.32;;;3.33;;
59659;SDS011;45534;52.690;6.268;2022-10-31T06:41:11;5.38;;;3.65;;
59659;SDS011;45534;52.690;6.268;2022-10-31T06:43:36;4.13;;;3.38;;
59659;SDS011;45534;52.690;6.268;2022-10-31T06:46:04;8.38;;;4.20;;
59659;SDS011;45534;52.690;6.268;2022-10-31T06:48:31;7.03;;;4.18;;
59659;SDS011;45534;52.690;6.268;2022-10-31T06:50:57;9.20;;;3.47;;
59659;SDS011;45534;52.690;6.268;2022-10-31T06:53:24;6.45;;;3.90;;
59659;SDS011;45534;52.690;6.268;2022-10-31T06:55:51;4.13;;;3.58;;
59659;SDS011;45534;52.690;6.268;2022-10-31T06:58:16;7.82;;;4.20;;
59659;SDS011;45534;52.690;6.268;2022-10-31T07:00:42;6.13;;;4.07;;
59659;SDS011;45534;52.690;6.268;2022-10-31T07:03:11;8.93;;;4.30;;
59659;SDS011;45534;52.690;6.268;2022-10-31T07:05:38;5.57;;;4.82;;
59659;SDS011;45534;52.690;6.268;2022-10-31T07:08:05;6.80;;;4.30;;
59659;SDS011;45534;52.690;6.268;2022-10-31T07:10:34;6.38;;;3.67;;
59659;SDS011;45534;52.690;6.268;2022-10-31T07:13:04;5.65;;;4.07;;
59659;SDS011;45534;52.690;6.268;2022-10-31T07:15:35;6.68;;;4.32;;
59659;SDS011;45534;52.690;6.268;2022-10-31T07:18:02;6.33;;;5.37;;
59659;SDS011;45534;52.690;6.268;2022-10-31T07:20:30;8.63;;;5.32;;
59659;SDS011;45534;52.690;6.268;2022-10-31T07:22:56;15.80;;;5.80;;
59659;SDS011;45534;52.690;6.268;2022-10-31T07:25:23;8.05;;;5.75;;
59659;SDS011;45534;52.690;6.268;2022-10-31T07:27:49;7.90;;;5.80;;
59659;SDS011;45534;52.690;6.268;2022-10-31T07:30:15;7.93;;;6.55;;
59659;SDS011;45534;52.690;6.268;2022-10-31T07:35:10;11.02;;;6.35;;
59659;SDS011;45534;52.690;6.268;2022-10-31T07:37:38;11.10;;;6.75;;
59659;SDS011;45534;52.690;6.268;2022-10-31T07:40:04;11.45;;;8.48;;
59659;SDS011;45534;52.690;6.268;2022-10-31T07:42:34;12.65;;;6.88;;
59659;SDS011;45534;52.690;6.268;2022-10-31T07:45:11;11.15;;;7.13;;
59659;SDS011;45534;52.690;6.268;2022-10-31T07:47:41;11.50;;;7.30;;
59659;SDS011;45534;52.690;6.268;2022-10-31T07:50:09;12.27;;;9.85;;
59659;SDS011;45534;52.690;6.268;2022-10-31T07:52:39;18.98;;;8.98;;
59659;SDS011;45534;52.690;6.268;2022-10-31T07:55:05;13.02;;;10.38;;
59659;SDS011;45534;52.690;6.268;2022-10-31T07:57:31;11.60;;;8.68;;
59659;SDS011;45534;52.690;6.268;2022-10-31T07:59:57;14.00;;;8.23;;
59659;SDS011;45534;52.690;6.268;2022-10-31T08:02:26;16.45;;;10.02;;
59659;SDS011;45534;52.690;6.268;2022-10-31T08:04:51;21.10;;;9.43;;
59659;SDS011;45534;52.690;6.268;2022-10-31T08:07:17;16.55;;;10.90;;
59659;SDS011;45534;52.690;6.268;2022-10-31T08:09:43;14.50;;;10.30;;
59659;SDS011;45534;52.690;6.268;2022-10-31T08:12:09;14.85;;;10.25;;
59659;SDS011;45534;52.690;6.268;2022-10-31T08:14:35;13.38;;;10.23;;
59659;SDS011;45534;52.690;6.268;2022-10-31T08:17:00;20.10;;;11.70;;
59659;SDS011;45534;52.690;6.268;2022-10-31T08:19:26;20.55;;;11.95;;
59659;SDS011;45534;52.690;6.268;2022-10-31T08:21:52;16.08;;;9.60;;
59659;SDS011;45534;52.690;6.268;2022-10-31T08:24:20;15.85;;;10.48;;
59659;SDS011;45534;52.690;6.268;2022-10-31T08:26:46;17.58;;;9.82;;
59659;SDS011;45534;52.690;6.268;2022-10-31T08:29:12;20.10;;;13.55;;
59659;SDS011;45534;52.690;6.268;2022-10-31T08:31:39;22.08;;;13.68;;
59659;SDS011;45534;52.690;6.268;2022-10-31T08:34:05;24.33;;;14.75;;
59659;SDS011;45534;52.690;6.268;2022-10-31T08:36:31;20.85;;;13.38;;
59659;SDS011;45534;52.690;6.268;2022-10-31T08:38:57;19.38;;;13.48;;
59659;SDS011;45534;52.690;6.268;2022-10-31T08:41:22;18.30;;;13.48;;
59659;SDS011;45534;52.690;6.268;2022-10-31T08:43:48;30.85;;;13.27;;
59659;SDS011;45534;52.690;6.268;2022-10-31T08:46:14;19.35;;;12.95;;
59659;SDS011;45534;52.690;6.268;2022-10-31T08:48:40;20.33;;;12.75;;
59659;SDS011;45534;52.690;6.268;2022-10-31T08:51:05;22.00;;;14.18;;
59659;SDS011;45534;52.690;6.268;2022-10-31T08:53:31;18.70;;;11.30;;
59659;SDS011;45534;52.690;6.268;2022-10-31T08:55:57;21.52;;;13.32;;
59659;SDS011;45534;52.690;6.268;2022-10-31T08:58:23;17.23;;;12.02;;
59659;SDS011;45534;52.690;6.268;2022-10-31T09:00:51;24.80;;;14.35;;
59659;SDS011;45534;52.690;6.268;2022-10-31T09:03:20;23.67;;;16.83;;
59659;SDS011;45534;52.690;6.268;2022-10-31T09:05:47;23.75;;;13.43;;
59659;SDS011;45534;52.690;6.268;2022-10-31T09:08:13;29.55;;;16.83;;
59659;SDS011;45534;52.690;6.268;2022-10-31T09:10:39;23.65;;;15.35;;
59659;SDS011;45534;52.690;6.268;2022-10-31T09:13:06;26.63;;;14.23;;
59659;SDS011;45534;52.690;6.268;2022-10-31T09:15:35;22.15;;;14.90;;
59659;SDS011;45534;52.690;6.268;2022-10-31T09:18:03;23.23;;;14.18;;
59659;SDS011;45534;52.690;6.268;2022-10-31T09:20:30;24.95;;;14.52;;
59659;SDS011;45534;52.690;6.268;2022-10-31T09:22:57;21.50;;;14.00;;
59659;SDS011;45534;52.690;6.268;2022-10-31T09:25:24;21.50;;;13.95;;
59659;SDS011;45534;52.690;6.268;2022-10-31T09:27:50;23.63;;;15.57;;
59659;SDS011;45534;52.690;6.268;2022-10-31T09:30:16;20.73;;;14.32;;
59659;SDS011;45534;52.690;6.268;2022-10-31T09:32:42;23.83;;;15.43;;
59659;SDS011;45534;52.690;6.268;2022-10-31T09:35:07;24.88;;;14.80;;
59659;SDS011;45534;52.690;6.268;2022-10-31T09:37:33;22.27;;;15.55;;
59659;SDS011;45534;52.690;6.268;2022-10-31T09:39:59;18.50;;;14.25;;
59659;SDS011;45534;52.690;6.268;2022-10-31T09:42:28;26.75;;;15.00;;
59659;SDS011;45534;52.690;6.268;2022-10-31T09:53:10;20.90;;;13.82;;
59659;SDS011;45534;52.690;6.268;2022-10-31T09:55:48;24.58;;;14.77;;
59659;SDS011;45534;52.690;6.268;2022-10-31T09:58:26;20.33;;;13.48;;
59659;SDS011;45534;52.690;6.268;2022-10-31T10:00:53;28.30;;;17.33;;
59659;SDS011;45534;52.690;6.268;2022-10-31T10:06:15;20.52;;;13.98;;
59659;SDS011;45534;52.690;6.268;2022-10-31T10:08:44;27.60;;;15.85;;
59659;SDS011;45534;52.690;6.268;2022-10-31T10:29:58;21.25;;;15.23;;
59659;SDS011;45534;52.690;6.268;2022-10-31T10:32:40;22.83;;;12.50;;
59659;SDS011;45534;52.690;6.268;2022-10-31T10:37:57;22.08;;;14.63;;
59659;SDS011;45534;52.690;6.268;2022-10-31T10:40:44;18.95;;;11.15;;
59659;SDS011;45534;52.690;6.268;2022-10-31T10:43:19;16.95;;;11.68;;
59659;SDS011;45534;52.690;6.268;2022-10-31T10:48:56;20.42;;;11.15;;
59659;SDS011;45534;52.690;6.268;2022-10-31T10:59:30;15.73;;;11.38;;
59659;SDS011;45534;52.690;6.268;2022-10-31T11:01:56;14.82;;;9.93;;
59659;SDS011;45534;52.690;6.268;2022-10-31T11:07:03;16.90;;;11.55;;
59659;SDS011;45534;52.690;6.268;2022-10-31T11:09:34;24.45;;;13.93;;
59659;SDS011;45534;52.690;6.268;2022-10-31T11:12:05;13.65;;;9.77;;
59659;SDS011;45534;52.690;6.268;2022-10-31T11:15:00;19.75;;;10.85;;
59659;SDS011;45534;52.690;6.268;2022-10-31T11:17:34;16.77;;;12.98;;
59659;SDS011;45534;52.690;6.268;2022-10-31T11:22:29;15.23;;;11.63;;
59659;SDS011;45534;52.690;6.268;2022-10-31T11:24:55;17.08;;;11.88;;
59659;SDS011;45534;52.690;6.268;2022-10-31T11:27:22;15.07;;;10.73;;
59659;SDS011;45534;52.690;6.268;2022-10-31T11:29:49;22.75;;;13.20;;
59659;SDS011;45534;52.690;6.268;2022-10-31T11:32:22;15.55;;;9.73;;
59659;SDS011;45534;52.690;6.268;2022-10-31T11:34:52;18.05;;;9.88;;
59659;SDS011;45534;52.690;6.268;2022-10-31T11:37:27;14.55;;;12.35;;
59659;SDS011;45534;52.690;6.268;2022-10-31T11:40:01;15.18;;;11.40;;
59659;SDS011;45534;52.690;6.268;2022-10-31T11:42:35;18.70;;;11.20;;
59659;SDS011;45534;52.690;6.268;2022-10-31T11:45:06;16.38;;;10.50;;
59659;SDS011;45534;52.690;6.268;2022-10-31T11:47:53;16.02;;;11.52;;
59659;SDS011;45534;52.690;6.268;2022-10-31T11:50:26;15.30;;;11.23;;
59659;SDS011;45534;52.690;6.268;2022-10-31T11:53:26;17.20;;;9.48;;
59659;SDS011;45534;52.690;6.268;2022-10-31T11:56:10;17.15;;;9.10;;
59659;SDS011;45534;52.690;6.268;2022-10-31T12:01:04;14.65;;;10.50;;
59659;SDS011;45534;52.690;6.268;2022-10-31T12:03:37;15.60;;;8.27;;
59659;SDS011;45534;52.690;6.268;2022-10-31T12:06:07;14.05;;;7.47;;
59659;SDS011;45534;52.690;6.268;2022-10-31T12:08:38;15.70;;;11.98;;
59659;SDS011;45534;52.690;6.268;2022-10-31T12:16:29;19.38;;;11.95;;
59659;SDS011;45534;52.690;6.268;2022-10-31T12:21:47;18.85;;;10.52;;
59659;SDS011;45534;52.690;6.268;2022-10-31T12:38:23;17.23;;;8.60;;
59659;SDS011;45534;52.690;6.268;2022-10-31T12:41:04;14.90;;;9.43;;
59659;SDS011;45534;52.690;6.268;2022-10-31T12:43:53;16.40;;;9.15;;
59659;SDS011;45534;52.690;6.268;2022-10-31T12:49:23;15.50;;;7.77;;
59659;SDS011;45534;52.690;6.268;2022-10-31T12:55:03;17.92;;;10.00;;
59659;SDS011;45534;52.690;6.268;2022-10-31T12:57:40;12.70;;;8.20;;
59659;SDS011;45534;52.690;6.268;2022-10-31T13:00:16;12.88;;;7.57;;
59659;SDS011;45534;52.690;6.268;2022-10-31T13:02:47;20.17;;;9.73;;
59659;SDS011;45534;52.690;6.268;2022-10-31T13:05:33;16.52;;;6.80;;
59659;SDS011;45534;52.690;6.268;2022-10-31T13:10:43;22.83;;;16.23;;
59659;SDS011;45534;52.690;6.268;2022-10-31T13:13:31;22.13;;;17.13;;
59659;SDS011;45534;52.690;6.268;2022-10-31T13:16:02;22.35;;;17.77;;
59659;SDS011;45534;52.690;6.268;2022-10-31T13:18:43;25.27;;;18.50;;
59659;SDS011;45534;52.690;6.268;2022-10-31T13:22:12;26.83;;;19.50;;
59659;SDS011;45534;52.690;6.268;2022-10-31T13:24:18;23.00;;;17.98;;
59659;SDS011;45534;52.690;6.268;2022-10-31T13:26:54;25.88;;;18.10;;
59659;SDS011;45534;52.690;6.268;2022-10-31T13:30:24;13.60;;;6.82;;
59659;SDS011;45534;52.690;6.268;2022-10-31T13:32:21;25.48;;;8.82;;
59659;SDS011;45534;52.690;6.268;2022-10-31T13:34:47;14.30;;;10.20;;
59659;SDS011;45534;52.690;6.268;2022-10-31T13:37:26;18.55;;;7.10;;
59659;SDS011;45534;52.690;6.268;2022-10-31T13:40:05;22.75;;;17.88;;
59659;SDS011;45534;52.690;6.268;2022-10-31T13:45:47;12.68;;;6.97;;
59659;SDS011;45534;52.690;6.268;2022-10-31T13:51:06;11.10;;;7.63;;
59659;SDS011;45534;52.690;6.268;2022-10-31T13:53:43;24.58;;;16.83;;
59659;SDS011;45534;52.690;6.268;2022-10-31T13:56:13;12.23;;;8.68;;
59659;SDS011;45534;52.690;6.268;2022-10-31T14:01:28;14.88;;;8.52;;
59659;SDS011;45534;52.690;6.268;2022-10-31T14:04:37;22.92;;;19.50;;
59659;SDS011;45534;52.690;6.268;2022-10-31T14:09:35;12.32;;;7.88;;
59659;SDS011;45534;52.690;6.268;2022-10-31T14:22:54;26.40;;;9.32;;
59659;SDS011;45534;52.690;6.268;2022-10-31T14:28:00;16.73;;;8.80;;
59659;SDS011;45534;52.690;6.268;2022-10-31T14:30:28;10.20;;;6.82;;
59659;SDS011;45534;52.690;6.268;2022-10-31T14:32:59;18.13;;;8.45;;
59659;SDS011;45534;52.690;6.268;2022-10-31T14:35:43;14.43;;;8.23;;
59659;SDS011;45534;52.690;6.268;2022-10-31T14:41:07;23.45;;;9.32;;
59659;SDS011;45534;52.690;6.268;2022-10-31T14:47:02;25.05;;;11.25;;
59659;SDS011;45534;52.690;6.268;2022-10-31T14:52:26;27.25;;;20.15;;
59659;SDS011;45534;52.690;6.268;2022-10-31T14:54:53;15.68;;;9.07;;
59659;SDS011;45534;52.690;6.268;2022-10-31T14:59:53;11.90;;;7.50;;
59659;SDS011;45534;52.690;6.268;2022-10-31T15:02:27;26.33;;;21.33;;
59659;SDS011;45534;52.690;6.268;2022-10-31T15:04:59;12.60;;;7.95;;
59659;SDS011;45534;52.690;6.268;2022-10-31T15:07:26;14.63;;;6.80;;
59659;SDS011;45534;52.690;6.268;2022-10-31T15:09:56;15.93;;;9.48;;
59659;SDS011;45534;52.690;6.268;2022-10-31T15:12:28;12.27;;;7.18;;
59659;SDS011;45534;52.690;6.268;2022-10-31T15:15:10;14.30;;;8.70;;
59659;SDS011;45534;52.690;6.268;2022-10-31T15:17:41;15.75;;;9.57;;
59659;SDS011;45534;52.690;6.268;2022-10-31T15:20:18;10.68;;;7.05;;
59659;SDS011;45534;52.690;6.268;2022-10-31T15:22:46;13.95;;;10.20;;
59659;SDS011;45534;52.690;6.268;2022-10-31T15:25:19;12.98;;;9.55;;
59659;SDS011;45534;52.690;6.268;2022-10-31T15:27:50;15.88;;;8.65;;
59659;SDS011;45534;52.690;6.268;2022-10-31T15:30:27;19.65;;;8.80;;
59659;SDS011;45534;52.690;6.268;2022-10-31T15:32:53;16.35;;;10.05;;
59659;SDS011;45534;52.690;6.268;2022-10-31T15:35:24;14.23;;;9.23;;
59659;SDS011;45534;52.690;6.268;2022-10-31T15:37:51;16.95;;;8.85;;
59659;SDS011;45534;52.690;6.268;2022-10-31T15:40:18;12.73;;;8.40;;
59659;SDS011;45534;52.690;6.268;2022-10-31T15:43:04;17.58;;;9.18;;
59659;SDS011;45534;52.690;6.268;2022-10-31T15:45:31;11.60;;;6.97;;
59659;SDS011;45534;52.690;6.268;2022-10-31T15:48:01;15.95;;;7.80;;
59659;SDS011;45534;52.690;6.268;2022-10-31T15:50:38;14.25;;;8.05;;
59659;SDS011;45534;52.690;6.268;2022-10-31T15:53:05;14.57;;;8.88;;
59659;SDS011;45534;52.690;6.268;2022-10-31T15:55:45;11.30;;;7.88;;
59659;SDS011;45534;52.690;6.268;2022-10-31T15:58:17;14.48;;;7.88;;
59659;SDS011;45534;52.690;6.268;2022-10-31T16:00:44;13.23;;;7.45;;
59659;SDS011;45534;52.690;6.268;2022-10-31T16:03:31;11.85;;;7.72;;
59659;SDS011;45534;52.690;6.268;2022-10-31T16:05:57;10.57;;;7.15;;
59659;SDS011;45534;52.690;6.268;2022-10-31T16:16:21;16.45;;;8.50;;
59659;SDS011;45534;52.690;6.268;2022-10-31T16:18:47;15.25;;;9.52;;
59659;SDS011;45534;52.690;6.268;2022-10-31T16:21:15;19.13;;;7.95;;
59659;SDS011;45534;52.690;6.268;2022-10-31T16:23:54;14.88;;;9.35;;
59659;SDS011;45534;52.690;6.268;2022-10-31T16:26:23;14.65;;;7.63;;
59659;SDS011;45534;52.690;6.268;2022-10-31T16:28:51;13.35;;;7.85;;
59659;SDS011;45534;52.690;6.268;2022-10-31T16:31:24;12.63;;;7.72;;
59659;SDS011;45534;52.690;6.268;2022-10-31T16:34:15;19.75;;;11.15;;
59659;SDS011;45534;52.690;6.268;2022-10-31T16:36:44;16.88;;;10.20;;
59659;SDS011;45534;52.690;6.268;2022-10-31T16:39:10;11.13;;;8.20;;
59659;SDS011;45534;52.690;6.268;2022-10-31T16:41:40;16.20;;;9.80;;
59659;SDS011;45534;52.690;6.268;2022-10-31T16:44:18;13.77;;;6.22;;
59659;SDS011;45534;52.690;6.268;2022-10-31T16:46:47;15.25;;;9.57;;
59659;SDS011;45534;52.690;6.268;2022-10-31T16:49:12;11.40;;;7.30;;
59659;SDS011;45534;52.690;6.268;2022-10-31T16:51:40;11.27;;;7.40;;
59659;SDS011;45534;52.690;6.268;2022-10-31T16:54:06;16.88;;;8.48;;
59659;SDS011;45534;52.690;6.268;2022-10-31T16:56:34;12.77;;;8.10;;
59659;SDS011;45534;52.690;6.268;2022-10-31T16:59:02;14.95;;;8.15;;
59659;SDS011;45534;52.690;6.268;2022-10-31T17:01:31;13.82;;;8.70;;
59659;SDS011;45534;52.690;6.268;2022-10-31T17:03:57;23.52;;;10.57;;
59659;SDS011;45534;52.690;6.268;2022-10-31T17:06:23;15.40;;;10.10;;
59659;SDS011;45534;52.690;6.268;2022-10-31T17:08:52;16.27;;;9.77;;
59659;SDS011;45534;52.690;6.268;2022-10-31T17:11:18;12.38;;;7.97;;
59659;SDS011;45534;52.690;6.268;2022-10-31T17:13:47;16.42;;;9.23;;
59659;SDS011;45534;52.690;6.268;2022-10-31T17:16:13;21.80;;;12.02;;
59659;SDS011;45534;52.690;6.268;2022-10-31T17:18:39;15.45;;;10.02;;
59659;SDS011;45534;52.690;6.268;2022-10-31T17:21:05;13.82;;;7.20;;
59659;SDS011;45534;52.690;6.268;2022-10-31T17:23:31;16.25;;;9.23;;
59659;SDS011;45534;52.690;6.268;2022-10-31T17:25:57;17.55;;;8.65;;
59659;SDS011;45534;52.690;6.268;2022-10-31T17:28:24;12.48;;;8.60;;
59659;SDS011;45534;52.690;6.268;2022-10-31T17:30:53;21.48;;;9.32;;